Time;durP1;ratioP1;P1;durP2;ratioP2;P2;SDS_P1;SDS_P2;PMS_P1;PMS_P2;Temp;Humidity;BMP_temperature;BMP_pressure;BME280_temperature;BME280_humidity;BME280_pressure;Samples;Min_cycle;Max_cycle;Signal;HPM_P1;HPM_P2
2023/05/20 00:08:46;;;;;;;5.32;2.22;;;13.10;1.00;;;;;;20711409;28;20088;-44
2023/05/20 00:18:47;;;;;;;6.95;2.38;;;13.00;1.00;;;;;;20716583;28;20058;-43
2023/05/20 00:28:48;;;;;;;5.65;1.90;;;12.80;1.00;;;;;;20714757;28;20054;-43
2023/05/20 00:38:49;;;;;;;7.10;2.33;;;12.70;1.00;;;;;;20716055;28;20030;-43
2023/05/20 00:48:50;;;;;;;4.45;2.08;;;12.50;1.00;;;;;;20717597;28;20500;-43
2023/05/20 00:58:51;;;;;;;3.83;1.58;;;12.50;1.00;;;;;;20713407;28;20053;-43
2023/05/20 01:08:53;;;;;;;7.97;1.85;;;12.50;1.00;;;;;;20710948;28;20049;-43
2023/05/20 01:18:56;;;;;;;6.05;1.85;;;12.50;1.00;;;;;;20710521;28;20040;-44
2023/05/20 01:29:03;;;;;;;6.22;2.80;;;12.40;1.00;;;;;;20711590;28;20025;-43
2023/05/20 01:39:05;;;;;;;5.68;2.60;;;12.30;1.00;;;;;;20713623;28;20720;-44
2023/05/20 01:49:06;;;;;;;5.97;2.78;;;12.20;1.00;;;;;;20712471;28;20038;-43
2023/05/20 01:59:07;;;;;;;8.43;2.75;;;12.10;1.00;;;;;;20718527;28;20045;-43
2023/05/20 02:09:08;;;;;;;3.85;2.10;;;11.90;1.00;;;;;;20701731;28;20528;-44
2023/05/20 02:19:11;;;;;;;7.95;2.58;;;11.80;1.00;;;;;;20703621;28;20038;-43
2023/05/20 02:29:12;;;;;;;10.82;3.30;;;11.70;1.00;;;;;;20706366;28;20050;-44
2023/05/20 02:39:14;;;;;;;10.73;2.53;;;11.60;1.00;;;;;;20711033;28;20046;-43
2023/05/20 02:49:15;;;;;;;5.38;2.85;;;11.60;1.00;;;;;;20700925;28;20038;-43
2023/05/20 02:59:16;;;;;;;6.75;3.10;;;11.50;1.00;;;;;;20711613;28;20041;-44
2023/05/20 03:09:20;;;;;;;9.18;2.60;;;11.40;1.00;;;;;;20727338;28;20046;-43
2023/05/20 03:19:21;;;;;;;9.25;2.28;;;11.30;1.00;;;;;;20722903;28;20443;-44
2023/05/20 03:29:22;;;;;;;6.85;2.38;;;11.30;1.00;;;;;;20725879;28;20038;-44
2023/05/20 03:39:23;;;;;;;9.10;2.72;;;11.30;1.00;;;;;;20721725;28;20040;-44
2023/05/20 03:49:25;;;;;;;5.35;2.25;;;11.30;1.00;;;;;;20728032;28;20037;-43
2023/05/20 03:59:26;;;;;;;6.03;2.47;;;11.30;1.00;;;;;;20722290;28;20432;-44
2023/05/20 04:09:27;;;;;;;4.72;2.00;;;11.20;1.00;;;;;;20729449;28;20057;-45
2023/05/20 04:19:28;;;;;;;6.60;2.17;;;11.20;1.00;;;;;;20724059;28;20038;-43
2023/05/20 04:29:33;;;;;;;5.07;2.40;;;11.30;1.00;;;;;;20722052;28;20038;-43
2023/05/20 04:39:35;;;;;;;4.90;2.58;;;11.40;1.00;;;;;;20717379;28;22314;-43
2023/05/20 04:49:36;;;;;;;5.93;2.33;;;11.50;1.00;;;;;;20708852;28;20393;-43
2023/05/20 04:59:37;;;;;;;6.13;1.92;;;11.70;1.00;;;;;;20723188;28;20501;-43
2023/05/20 05:09:38;;;;;;;4.55;2.55;;;11.70;1.00;;;;;;20701072;28;20489;-43
2023/05/20 05:19:40;;;;;;;4.28;1.92;;;11.80;1.00;;;;;;20560633;28;20043;-43
2023/05/20 05:29:41;;;;;;;5.20;2.75;;;11.90;1.00;;;;;;20523086;28;20414;-43
2023/05/20 05:39:42;;;;;;;5.10;2.60;;;12.10;1.00;;;;;;20545322;28;20544;-43
2023/05/20 05:49:43;;;;;;;5.63;2.58;;;12.60;1.00;;;;;;20548699;28;20120;-45
2023/05/20 05:59:44;;;;;;;6.03;1.90;;;13.20;1.00;;;;;;20554384;28;20038;-44
2023/05/20 06:09:45;;;;;;;3.97;2.08;;;13.70;1.00;;;;;;20561005;28;20039;-43
2023/05/20 06:19:46;;;;;;;4.07;1.83;;;14.00;1.00;;;;;;20552321;28;20046;-44
2023/05/20 06:29:47;;;;;;;3.35;2.08;;;14.30;1.00;;;;;;20537991;28;20038;-43
2023/05/20 06:39:52;;;;;;;6.55;1.83;;;14.50;1.00;;;;;;20567947;28;20049;-43
2023/05/20 06:49:53;;;;;;;3.72;1.92;;;14.70;1.00;;;;;;20567713;28;20038;-43
2023/05/20 06:59:54;;;;;;;6.88;2.40;;;15.00;1.00;;;;;;20571404;28;20046;-44
2023/05/20 07:09:56;;;;;;;6.65;2.10;;;15.20;1.00;;;;;;20591182;28;20061;-43
2023/05/20 07:19:57;;;;;;;4.28;2.20;;;15.40;1.00;;;;;;20627644;28;20561;-42
2023/05/20 07:29:58;;;;;;;4.60;2.17;;;15.50;1.00;;;;;;20653396;28;20053;-43
2023/05/20 07:40:00;;;;;;;2.63;1.45;;;15.60;1.00;;;;;;20650332;28;20056;-42
2023/05/20 07:50:01;;;;;;;3.20;1.80;;;15.70;1.00;;;;;;20640724;28;20038;-43
2023/05/20 08:00:02;;;;;;;3.22;1.70;;;15.90;1.00;;;;;;20638280;28;20401;-42
2023/05/20 08:10:04;;;;;;;4.95;2.28;;;16.40;1.00;;;;;;20656628;28;20231;-43
2023/05/20 08:20:07;;;;;;;3.72;1.38;;;16.60;1.00;;;;;;20724424;28;20640;-43
2023/05/20 08:30:08;;;;;;;4.95;1.20;;;16.80;1.00;;;;;;20693506;28;20490;-43
2023/05/20 08:40:10;;;;;;;2.85;1.02;;;17.20;1.00;;;;;;20720411;28;20097;-44
2023/05/20 08:50:13;;;;;;;2.50;1.00;;;17.40;1.00;;;;;;20709425;28;20050;-44
2023/05/20 09:00:15;;;;;;;2.33;1.13;;;17.80;1.00;;;;;;20722853;28;20042;-44
2023/05/20 09:10:16;;;;;;;2.05;1.00;;;18.20;1.00;;;;;;20709605;28;20053;-43
2023/05/20 09:20:21;;;;;;;3.00;1.10;;;18.50;1.00;;;;;;20738448;28;20706;-43
2023/05/20 09:30:22;;;;;;;3.63;0.80;;;18.80;1.00;;;;;;20704661;28;20041;-43
2023/05/20 09:40:28;;;;;;;3.20;1.10;;;19.00;1.00;;;;;;20701366;28;20044;-43
2023/05/20 09:50:30;;;;;;;1.75;0.70;;;19.20;1.00;;;;;;20705125;28;20042;-42
2023/05/20 10:00:31;;;;;;;1.55;0.73;;;19.50;1.00;;;;;;20722161;28;20053;-42
2023/05/20 10:10:50;;;;;;;2.13;0.90;;;19.60;1.00;;;;;;20707874;28;20061;-44
2023/05/20 10:20:51;;;;;;;1.98;0.82;;;19.90;1.00;;;;;;20723631;28;20629;-42
2023/05/20 10:30:52;;;;;;;2.33;1.02;;;20.30;1.00;;;;;;20717830;28;20052;-43
2023/05/20 10:40:56;;;;;;;2.03;0.80;;;20.10;1.00;;;;;;20678152;28;20509;-43
2023/05/20 10:50:59;;;;;;;3.13;1.48;;;20.30;1.00;;;;;;20696191;28;20383;-43
2023/05/20 11:01:02;;;;;;;2.55;1.10;;;20.60;1.00;;;;;;20694064;28;20044;-43
2023/05/20 11:11:03;;;;;;;2.15;0.80;;;20.60;1.00;;;;;;20708941;28;20048;-43
2023/05/20 11:21:04;;;;;;;1.63;0.70;;;20.50;1.00;;;;;;20722677;28;20044;-43
2023/05/20 11:31:06;;;;;;;1.73;0.90;;;20.60;1.00;;;;;;20727443;28;20057;-43
2023/05/20 11:41:07;;;;;;;1.30;0.60;;;20.70;1.00;;;;;;20733063;28;20044;-44
2023/05/20 11:51:08;;;;;;;2.55;0.82;;;20.70;1.00;;;;;;20743259;28;20662;-43
2023/05/20 12:01:09;;;;;;;1.50;0.80;;;20.40;1.00;;;;;;20743182;28;20034;-43
2023/05/20 12:11:10;;;;;;;2.15;0.98;;;20.50;1.00;;;;;;20735279;28;20046;-43
2023/05/20 12:21:11;;;;;;;4.97;0.73;;;20.40;1.00;;;;;;20732022;28;20130;-43
2023/05/20 12:31:12;;;;;;;1.60;0.80;;;21.00;1.00;;;;;;20736343;28;20615;-43
2023/05/20 12:41:13;;;;;;;1.73;0.70;;;21.40;1.00;;;;;;20742272;28;20421;-44
2023/05/20 12:51:14;;;;;;;2.13;0.73;;;21.60;1.00;;;;;;20708720;28;20056;-43
2023/05/20 13:01:15;;;;;;;3.15;1.02;;;21.80;1.00;;;;;;20722559;28;20049;-43
2023/05/20 13:11:17;;;;;;;1.20;0.52;;;22.20;1.00;;;;;;20726430;28;20088;-43
2023/05/20 13:21:18;;;;;;;2.17;0.82;;;22.00;1.00;;;;;;20719026;28;20034;-44
2023/05/20 13:31:19;;;;;;;2.63;0.95;;;22.20;1.00;;;;;;20712081;28;20057;-43
2023/05/20 13:41:20;;;;;;;2.15;0.65;;;22.00;1.00;;;;;;20738353;28;20068;-43
2023/05/20 13:51:21;;;;;;;1.83;0.90;;;22.20;1.00;;;;;;20736848;28;20049;-43
2023/05/20 14:01:22;;;;;;;2.58;0.85;;;22.40;1.00;;;;;;20733824;28;20052;-44
2023/05/20 14:11:23;;;;;;;1.48;0.60;;;21.80;1.00;;;;;;20726513;28;20045;-43
2023/05/20 14:21:25;;;;;;;1.85;0.80;;;21.50;1.00;;;;;;20722635;28;20619;-43
2023/05/20 14:31:26;;;;;;;2.08;0.68;;;21.10;1.00;;;;;;20718396;28;20371;-43
2023/05/20 14:41:27;;;;;;;1.98;0.73;;;20.90;1.00;;;;;;20728046;28;20029;-43
2023/05/20 14:51:28;;;;;;;2.67;1.42;;;20.90;1.00;;;;;;20718504;28;20046;-44
2023/05/20 15:01:29;;;;;;;3.38;1.10;;;21.00;1.00;;;;;;20732757;28;20045;-43
2023/05/20 15:11:31;;;;;;;1.83;0.85;;;20.80;1.00;;;;;;20742097;28;20049;-44
2023/05/20 15:21:32;;;;;;;4.57;0.88;;;20.70;1.00;;;;;;20751306;28;20414;-44
2023/05/20 15:31:33;;;;;;;2.22;1.30;;;20.60;1.00;;;;;;20746190;28;20049;-43
2023/05/20 15:41:36;;;;;;;1.77;0.77;;;20.70;1.00;;;;;;20741614;28;20334;-44
2023/05/20 15:51:38;;;;;;;1.27;0.75;;;20.60;1.00;;;;;;20742243;28;20727;-43
2023/05/20 16:01:39;;;;;;;2.38;1.02;;;20.40;1.00;;;;;;20741925;28;20401;-43
2023/05/20 16:11:40;;;;;;;3.28;1.08;;;20.50;1.00;;;;;;20746155;28;20050;-43
2023/05/20 16:21:41;;;;;;;3.03;1.30;;;20.40;1.00;;;;;;20740466;28;20034;-43
2023/05/20 16:31:45;;;;;;;2.35;0.98;;;20.30;1.00;;;;;;20723244;28;20045;-43
2023/05/20 16:41:46;;;;;;;2.50;1.30;;;20.10;1.00;;;;;;20713579;28;20480;-43
2023/05/20 16:51:47;;;;;;;1.90;1.23;;;20.00;1.00;;;;;;20716202;28;20068;-44
2023/05/20 17:01:48;;;;;;;2.47;1.13;;;19.80;1.00;;;;;;20721862;28;20038;-44
2023/05/20 17:11:50;;;;;;;2.97;1.27;;;19.70;1.00;;;;;;20702152;28;20614;-44
2023/05/20 17:21:54;;;;;;;3.03;1.48;;;19.60;1.00;;;;;;20703248;28;20045;-43
2023/05/20 17:31:55;;;;;;;4.05;1.70;;;19.50;1.00;;;;;;20704660;28;20049;-44
2023/05/20 17:41:56;;;;;;;3.83;1.40;;;19.40;1.00;;;;;;20721227;28;20412;-43
2023/05/20 17:51:57;;;;;;;2.50;1.33;;;19.00;1.00;;;;;;20680206;28;20052;-44
2023/05/20 18:01:58;;;;;;;3.42;1.17;;;18.90;1.00;;;;;;20697623;28;20034;-43
2023/05/20 18:11:59;;;;;;;5.30;1.33;;;18.90;1.00;;;;;;20696039;28;20053;-43
2023/05/20 18:22:01;;;;;;;4.70;1.50;;;18.70;1.00;;;;;;20679319;28;20678;-43
2023/05/20 18:32:02;;;;;;;5.38;2.08;;;18.50;1.00;;;;;;20707664;28;20041;-43
2023/05/20 18:42:03;;;;;;;2.55;1.27;;;18.50;1.00;;;;;;20712757;28;20034;-43
2023/05/20 18:52:05;;;;;;;3.45;1.50;;;18.40;1.00;;;;;;20712092;28;20294;-43
2023/05/20 19:02:06;;;;;;;1.58;0.73;;;18.20;1.00;;;;;;20729152;28;20030;-44
2023/05/20 19:12:07;;;;;;;3.80;1.27;;;18.20;1.00;;;;;;20722334;28;20412;-44
2023/05/20 19:22:08;;;;;;;3.90;1.00;;;18.00;1.00;;;;;;20719313;28;20533;-44
2023/05/20 19:32:09;;;;;;;4.20;1.00;;;18.00;1.00;;;;;;20717086;28;20068;-44
2023/05/20 19:42:10;;;;;;;2.88;1.10;;;17.90;1.00;;;;;;20723212;28;20084;-44
2023/05/20 19:52:11;;;;;;;2.53;1.20;;;17.90;1.00;;;;;;20721286;28;20038;-43
2023/05/20 20:02:13;;;;;;;1.58;1.00;;;17.70;1.00;;;;;;20680894;28;20041;-43
2023/05/20 20:12:14;;;;;;;1.15;0.63;;;17.70;1.00;;;;;;20708825;28;20427;-43
2023/05/20 20:22:15;;;;;;;1.65;0.70;;;17.60;1.00;;;;;;20712439;28;20045;-44
2023/05/20 20:32:16;;;;;;;2.20;1.05;;;17.40;1.00;;;;;;20705991;28;20413;-43
2023/05/20 20:42:17;;;;;;;2.40;1.30;;;17.20;1.00;;;;;;20718358;28;20049;-44
2023/05/20 20:52:18;;;;;;;2.35;0.90;;;16.80;1.00;;;;;;20725481;28;21650;-44
2023/05/20 21:02:19;;;;;;;2.95;1.05;;;16.50;1.00;;;;;;20724544;28;20049;-43
2023/05/20 21:12:20;;;;;;;2.67;1.40;;;16.20;1.00;;;;;;20727844;28;20386;-43
2023/05/20 21:22:22;;;;;;;3.10;1.00;;;16.00;1.00;;;;;;20717821;28;20034;-43
2023/05/20 21:32:23;;;;;;;2.70;1.30;;;15.80;1.00;;;;;;20722024;28;20046;-43
2023/05/20 21:42:24;;;;;;;3.65;1.48;;;15.50;1.00;;;;;;20708236;28;20034;-44
2023/05/20 21:52:25;;;;;;;2.30;1.30;;;15.30;1.00;;;;;;20715787;28;20418;-43
2023/05/20 22:02:26;;;;;;;3.05;1.10;;;15.20;1.00;;;;;;20726682;28;20064;-43
2023/05/20 22:12:28;;;;;;;2.40;1.30;;;15.30;1.00;;;;;;20720669;28;20056;-42
2023/05/20 22:22:31;;;;;;;2.20;1.50;;;15.30;1.00;;;;;;20717777;28;20100;-43
2023/05/20 22:32:32;;;;;;;1.90;1.13;;;15.40;1.00;;;;;;20718394;28;20037;-44
2023/05/20 22:42:33;;;;;;;2.30;1.10;;;15.40;1.00;;;;;;20714887;28;20037;-43
2023/05/20 22:52:35;;;;;;;1.75;1.25;;;15.60;1.00;;;;;;20718670;28;20049;-44
2023/05/20 23:02:36;;;;;;;2.38;1.27;;;15.70;1.00;;;;;;20714233;28;20495;-44
2023/05/20 23:12:37;;;;;;;3.35;1.10;;;15.70;1.00;;;;;;20706412;28;20049;-44
2023/05/20 23:22:41;;;;;;;2.42;0.88;;;15.70;1.00;;;;;;20730427;28;20034;-44
2023/05/20 23:32:42;;;;;;;2.05;0.88;;;15.50;1.00;;;;;;20727068;28;20038;-44
2023/05/20 23:42:45;;;;;;;3.10;1.05;;;15.50;1.00;;;;;;20725388;28;20386;-44
2023/05/20 23:52:47;;;;;;;2.80;0.98;;;15.40;1.00;;;;;;20730604;28;20052;-43
